Time;durP1;ratioP1;P1;durP2;ratioP2;P2;SDS_P1;SDS_P2;PMS_P1;PMS_P2;Temp;Humidity;BMP_temperature;BMP_pressure;BME280_temperature;BME280_humidity;BME280_pressure;Samples;Min_cycle;Max_cycle;Signal;HPM_P1;HPM_P2
2021/07/03 00:00:34;;;;;;;9.33;8.33;;;15.90;99.90;;;;;;4978437;28;20486;-59
2021/07/03 00:03:00;;;;;;;9.55;7.88;;;15.20;99.90;;;;;;4979521;28;20179;-59
2021/07/03 00:05:25;;;;;;;9.23;8.03;;;15.70;99.90;;;;;;4987240;28;20214;-59
2021/07/03 00:07:51;;;;;;;10.50;9.40;;;15.70;99.90;;;;;;4980873;28;20456;-59
2021/07/03 00:10:18;;;;;;;10.50;9.07;;;15.70;99.90;;;;;;4985670;28;20192;-59
2021/07/03 00:12:43;;;;;;;10.27;8.90;;;15.50;99.90;;;;;;4981138;28;20989;-59
2021/07/03 00:15:13;;;;;;;8.83;7.73;;;15.60;99.90;;;;;;4983154;28;20278;-58
2021/07/03 00:17:39;;;;;;;9.60;8.60;;;15.70;99.90;;;;;;4984644;28;20199;-59
2021/07/03 00:20:09;;;;;;;12.18;8.48;;;15.50;99.90;;;;;;4979016;28;20231;-59
2021/07/03 00:22:35;;;;;;;9.07;7.85;;;15.60;99.90;;;;;;4986332;28;20195;-60
2021/07/03 00:25:02;;;;;;;10.82;8.90;;;15.50;99.90;;;;;;4984018;28;20183;-59
2021/07/03 00:27:28;;;;;;;10.27;8.40;;;15.50;99.90;;;;;;4981550;28;20196;-59
2021/07/03 00:29:53;;;;;;;9.87;8.20;;;15.50;99.90;;;;;;4996359;28;20238;-59
2021/07/03 00:32:19;;;;;;;8.60;7.53;;;15.40;99.90;;;;;;4982985;28;20202;-59
2021/07/03 00:34:45;;;;;;;10.23;8.33;;;15.50;99.90;;;;;;4987029;28;20256;-58
2021/07/03 00:37:10;;;;;;;9.63;8.73;;;15.30;99.90;;;;;;4976478;28;20176;-58
2021/07/03 00:39:36;;;;;;;9.57;8.60;;;15.30;99.90;;;;;;4975868;28;20575;-58
2021/07/03 00:42:01;;;;;;;10.43;8.70;;;15.30;99.90;;;;;;4976844;28;20183;-59
2021/07/03 00:44:32;;;;;;;9.40;8.40;;;15.60;99.90;;;;;;4986357;28;20211;-59
2021/07/03 00:47:02;;;;;;;9.18;8.38;;;15.50;99.90;;;;;;4985748;28;20755;-59
2021/07/03 00:49:28;;;;;;;9.30;8.40;;;15.40;99.90;;;;;;4979932;28;20286;-59
2021/07/03 00:51:54;;;;;;;9.53;8.53;;;15.30;99.90;;;;;;4985987;28;20300;-58
2021/07/03 00:54:21;;;;;;;11.37;8.60;;;15.20;99.90;;;;;;4988566;28;20438;-59
2021/07/03 00:57:01;;;;;;;11.27;8.63;;;15.40;99.90;;;;;;4980765;28;20445;-58
2021/07/03 00:59:35;;;;;;;10.10;8.40;;;15.40;99.90;;;;;;4983640;28;20218;-59
2021/07/03 01:02:02;;;;;;;9.15;8.15;;;15.30;99.90;;;;;;4989260;28;20274;-59
2021/07/03 01:04:29;;;;;;;9.73;8.77;;;15.30;99.90;;;;;;4985672;28;20188;-60
2021/07/03 01:06:55;;;;;;;10.00;8.63;;;15.30;99.90;;;;;;4990060;28;20234;-58
2021/07/03 01:09:20;;;;;;;8.70;7.90;;;15.50;99.90;;;;;;4982711;28;20204;-59
2021/07/03 01:11:46;;;;;;;10.17;8.20;;;15.30;99.90;;;;;;4989739;28;20465;-59
2021/07/03 01:14:12;;;;;;;9.83;8.80;;;15.20;99.90;;;;;;4984795;28;20188;-59
2021/07/03 01:16:38;;;;;;;9.63;8.70;;;15.20;99.90;;;;;;4987136;28;20187;-59
2021/07/03 01:19:03;;;;;;;10.03;9.00;;;15.20;99.90;;;;;;4981532;28;20470;-60
2021/07/03 01:21:30;;;;;;;8.30;7.50;;;15.30;99.90;;;;;;4985261;28;20188;-59
2021/07/03 01:23:55;;;;;;;8.65;7.75;;;14.90;99.90;;;;;;4988728;28;21077;-58
2021/07/03 01:26:21;;;;;;;11.07;9.30;;;15.20;99.90;;;;;;4986275;28;20300;-60
2021/07/03 01:28:47;;;;;;;10.43;9.40;;;15.00;99.90;;;;;;4986349;28;20460;-59
2021/07/03 01:31:13;;;;;;;9.63;8.63;;;14.80;99.90;;;;;;4979709;28;20443;-59
2021/07/03 01:33:39;;;;;;;11.38;8.13;;;15.10;99.90;;;;;;4987004;28;20237;-59
2021/07/03 01:36:05;;;;;;;10.90;8.27;;;14.80;99.90;;;;;;4989377;28;20187;-60
2021/07/03 01:38:31;;;;;;;9.60;7.88;;;14.70;99.90;;;;;;4982293;28;20466;-60
2021/07/03 01:40:58;;;;;;;8.60;7.80;;;14.70;99.90;;;;;;4978763;28;20212;-60
2021/07/03 01:43:25;;;;;;;11.38;8.35;;;14.90;99.90;;;;;;4980425;28;20184;-60
2021/07/03 01:45:52;;;;;;;8.63;7.82;;;14.70;99.90;;;;;;4980694;28;20226;-59
2021/07/03 01:48:28;;;;;;;8.60;7.80;;;14.80;99.90;;;;;;4981847;28;20204;-58
2021/07/03 01:50:54;;;;;;;8.90;8.00;;;14.80;99.90;;;;;;4978163;28;20195;-59
2021/07/03 01:53:21;;;;;;;10.95;8.50;;;14.80;99.90;;;;;;4978106;28;20184;-58
2021/07/03 01:55:48;;;;;;;8.93;7.40;;;14.60;99.90;;;;;;4985784;28;20188;-58
2021/07/03 01:58:21;;;;;;;11.07;9.55;;;15.00;99.90;;;;;;4984034;28;20286;-57
2021/07/03 02:00:53;;;;;;;10.77;8.93;;;14.60;99.90;;;;;;4982072;28;20211;-57
2021/07/03 02:03:24;;;;;;;9.45;8.50;;;14.80;99.90;;;;;;4997197;28;20180;-59
2021/07/03 02:05:50;;;;;;;9.30;7.90;;;14.50;99.90;;;;;;4973105;28;20303;-58
2021/07/03 02:08:16;;;;;;;8.60;7.70;;;14.60;99.90;;;;;;4980054;28;20287;-59
2021/07/03 02:10:42;;;;;;;8.70;7.83;;;14.80;99.90;;;;;;4984130;28;20730;-58
2021/07/03 02:13:08;;;;;;;9.30;8.40;;;14.70;99.90;;;;;;4984788;28;20242;-58
2021/07/03 02:15:34;;;;;;;8.70;7.63;;;14.70;99.90;;;;;;4987169;28;20219;-58
2021/07/03 02:18:01;;;;;;;8.95;8.05;;;14.60;99.90;;;;;;4984119;28;20238;-58
2021/07/03 02:20:26;;;;;;;10.15;7.75;;;14.80;99.90;;;;;;4990616;28;20203;-58
2021/07/03 02:22:52;;;;;;;8.40;7.60;;;14.80;99.90;;;;;;4985067;28;20202;-59
2021/07/03 02:25:19;;;;;;;8.90;8.00;;;14.80;99.90;;;;;;4983353;28;20184;-58
2021/07/03 02:31:07;;;;;;;8.60;7.20;;;14.70;99.90;;;;;;4980137;28;20266;-58
2021/07/03 02:33:33;;;;;;;9.23;8.03;;;14.40;99.90;;;;;;4977696;28;20207;-58
2021/07/03 02:35:58;;;;;;;7.95;7.22;;;14.70;99.90;;;;;;4987762;28;20185;-58
2021/07/03 02:38:24;;;;;;;9.30;8.13;;;14.90;99.90;;;;;;4983521;28;20204;-59
2021/07/03 02:40:50;;;;;;;7.83;7.13;;;14.60;99.90;;;;;;4986336;28;20258;-58
2021/07/03 02:43:16;;;;;;;8.00;7.20;;;14.80;99.90;;;;;;4991718;28;20439;-58
2021/07/03 02:45:42;;;;;;;8.10;7.30;;;14.50;99.90;;;;;;4977790;28;20497;-58
2021/07/03 02:48:07;;;;;;;8.70;7.80;;;14.50;99.90;;;;;;4978331;28;20459;-58
2021/07/03 02:50:33;;;;;;;9.23;8.30;;;14.50;99.90;;;;;;4977729;28;20602;-58
2021/07/03 02:52:59;;;;;;;8.87;7.87;;;14.60;99.90;;;;;;4991351;28;20470;-59
2021/07/03 02:55:25;;;;;;;9.23;7.90;;;14.40;99.90;;;;;;4985538;28;20184;-59
2021/07/03 02:57:51;;;;;;;9.43;8.02;;;14.50;99.90;;;;;;4981171;28;20215;-59
2021/07/03 03:00:17;;;;;;;11.57;8.50;;;14.50;99.90;;;;;;4985138;28;20886;-59
2021/07/03 03:02:44;;;;;;;8.82;7.00;;;14.60;99.90;;;;;;4987033;28;20183;-58
2021/07/03 03:05:11;;;;;;;8.90;8.00;;;14.50;99.90;;;;;;4984635;28;20554;-58
2021/07/03 03:07:39;;;;;;;9.38;8.00;;;14.70;99.90;;;;;;4982302;28;20270;-58
2021/07/03 03:10:06;;;;;;;8.90;8.00;;;14.60;99.90;;;;;;4986100;28;20183;-58
2021/07/03 03:12:32;;;;;;;10.05;7.97;;;14.60;99.90;;;;;;4981306;28;20250;-58
2021/07/03 03:14:58;;;;;;;8.70;7.80;;;14.60;99.90;;;;;;4988799;28;20195;-58
2021/07/03 03:17:24;;;;;;;8.88;7.68;;;14.60;99.90;;;;;;4990001;28;20191;-58
2021/07/03 03:19:50;;;;;;;9.03;8.10;;;14.60;99.90;;;;;;4985000;28;20226;-58
2021/07/03 03:22:15;;;;;;;9.03;8.10;;;14.50;99.90;;;;;;4980701;28;20282;-59
2021/07/03 03:24:41;;;;;;;9.63;8.17;;;14.50;99.90;;;;;;4981336;28;20179;-60
2021/07/03 03:27:07;;;;;;;10.03;8.10;;;14.60;99.90;;;;;;4987258;28;20847;-59
2021/07/03 03:29:33;;;;;;;10.47;8.20;;;14.60;99.90;;;;;;4980997;28;20198;-59
2021/07/03 03:31:58;;;;;;;9.00;8.20;;;14.30;99.90;;;;;;4985045;28;20233;-59
2021/07/03 03:34:24;;;;;;;9.50;8.20;;;14.60;99.90;;;;;;4981855;28;20569;-60
2021/07/03 03:36:49;;;;;;;9.03;8.00;;;14.30;99.90;;;;;;4982120;28;20191;-59
2021/07/03 03:39:15;;;;;;;9.20;8.30;;;14.40;99.90;;;;;;4985616;28;20224;-59
2021/07/03 03:41:41;;;;;;;9.23;8.33;;;14.50;99.90;;;;;;4984804;28;20718;-59
2021/07/03 03:44:07;;;;;;;10.83;8.20;;;14.50;99.90;;;;;;4979975;28;20442;-59
2021/07/03 03:46:32;;;;;;;9.23;8.03;;;13.90;99.90;;;;;;4979970;28;20188;-59
2021/07/03 03:48:58;;;;;;;8.50;7.60;;;14.40;99.90;;;;;;4981843;28;20224;-59
2021/07/03 03:51:24;;;;;;;9.37;8.37;;;14.50;99.90;;;;;;4982608;28;20188;-59
2021/07/03 03:53:49;;;;;;;9.87;8.87;;;14.60;99.90;;;;;;4974853;28;20882;-59
2021/07/03 03:56:15;;;;;;;9.73;8.73;;;14.40;99.90;;;;;;4978392;28;20251;-59
2021/07/03 03:58:41;;;;;;;9.07;8.17;;;14.60;99.90;;;;;;4986730;28;20204;-60
2021/07/03 04:01:06;;;;;;;9.20;8.27;;;14.60;99.90;;;;;;4984705;28;20302;-60
2021/07/03 04:03:32;;;;;;;9.43;8.43;;;14.50;99.90;;;;;;4975601;28;20270;-60
2021/07/03 04:05:58;;;;;;;8.50;7.70;;;14.30;99.90;;;;;;4982970;28;20176;-60
2021/07/03 04:08:23;;;;;;;11.53;8.60;;;14.70;99.90;;;;;;4981990;28;20200;-60
2021/07/03 04:10:49;;;;;;;9.20;7.87;;;14.90;99.90;;;;;;4985602;28;20183;-60
2021/07/03 04:13:14;;;;;;;11.37;8.70;;;14.70;99.90;;;;;;4987304;28;20707;-60
2021/07/03 04:15:40;;;;;;;8.80;8.00;;;14.80;99.90;;;;;;4987384;28;20191;-58
2021/07/03 04:18:06;;;;;;;9.17;8.17;;;14.70;99.90;;;;;;4988284;28;20207;-58
2021/07/03 04:20:32;;;;;;;8.40;7.30;;;14.80;99.90;;;;;;4973330;28;20197;-59
2021/07/03 04:22:57;;;;;;;9.40;8.33;;;14.90;99.90;;;;;;4976147;28;20191;-59
2021/07/03 04:25:23;;;;;;;10.33;7.80;;;14.80;99.90;;;;;;4976598;28;20431;-58
2021/07/03 04:27:52;;;;;;;8.73;7.83;;;14.70;99.90;;;;;;4995042;28;20459;-59
2021/07/03 04:30:18;;;;;;;10.52;8.00;;;14.70;99.90;;;;;;4983343;28;20518;-55
2021/07/03 04:32:44;;;;;;;7.87;6.93;;;14.70;99.90;;;;;;4979955;28;20282;-60
2021/07/03 04:35:13;;;;;;;8.43;7.55;;;14.60;99.90;;;;;;4983312;28;20434;-56
2021/07/03 04:37:39;;;;;;;9.52;8.00;;;14.80;99.90;;;;;;4978553;28;20198;-57
2021/07/03 04:40:07;;;;;;;9.10;7.97;;;14.80;99.90;;;;;;4981764;28;20265;-57
2021/07/03 04:42:33;;;;;;;9.45;8.55;;;15.10;99.90;;;;;;4977774;28;20190;-56
2021/07/03 04:44:59;;;;;;;8.17;7.40;;;14.80;99.90;;;;;;4976394;28;20541;-56
2021/07/03 04:47:24;;;;;;;7.90;7.20;;;15.10;99.90;;;;;;4976955;28;20551;-56
2021/07/03 04:49:50;;;;;;;8.53;7.73;;;15.20;99.90;;;;;;4978264;28;20287;-58
2021/07/03 04:52:15;;;;;;;7.73;6.93;;;15.30;99.90;;;;;;4976282;28;20191;-57
2021/07/03 04:54:41;;;;;;;8.40;7.60;;;15.20;99.90;;;;;;4977493;28;20188;-57
2021/07/03 04:57:07;;;;;;;8.30;7.50;;;15.60;99.90;;;;;;4979856;28;20187;-56
2021/07/03 04:59:37;;;;;;;8.30;7.17;;;15.60;99.90;;;;;;4977822;28;20222;-56
2021/07/03 05:02:05;;;;;;;8.60;7.70;;;15.50;99.90;;;;;;4977219;28;20185;-56
2021/07/03 05:04:30;;;;;;;8.10;7.38;;;15.60;99.90;;;;;;4976815;28;20670;-56
2021/07/03 05:06:56;;;;;;;8.13;7.33;;;15.70;99.90;;;;;;4982626;28;20260;-55
2021/07/03 05:09:21;;;;;;;8.40;7.60;;;15.90;99.90;;;;;;4979344;28;20298;-56
2021/07/03 05:11:47;;;;;;;8.10;7.30;;;16.00;99.90;;;;;;4979141;28;20742;-57
2021/07/03 05:14:13;;;;;;;8.10;7.30;;;16.00;99.90;;;;;;4976018;28;20210;-56
2021/07/03 05:16:38;;;;;;;8.10;7.40;;;16.00;99.90;;;;;;4976213;28;20195;-57
2021/07/03 05:19:04;;;;;;;7.83;6.90;;;16.20;99.90;;;;;;4981630;28;20945;-56
2021/07/03 05:21:29;;;;;;;8.70;7.90;;;16.30;99.90;;;;;;4983371;28;20176;-57
2021/07/03 05:23:55;;;;;;;7.87;7.17;;;16.40;99.90;;;;;;4975889;28;20784;-57
2021/07/03 05:26:21;;;;;;;12.23;7.90;;;16.50;99.90;;;;;;4976528;28;20228;-57
2021/07/03 05:28:46;;;;;;;8.07;7.30;;;17.00;99.90;;;;;;4979410;28;20206;-57
2021/07/03 05:31:12;;;;;;;8.07;7.17;;;16.60;99.90;;;;;;4984842;28;20279;-56
2021/07/03 05:33:38;;;;;;;8.10;6.97;;;16.80;99.90;;;;;;4975103;28;20273;-56
2021/07/03 05:36:03;;;;;;;8.27;7.20;;;17.00;99.90;;;;;;4983918;28;20251;-58
2021/07/03 05:38:29;;;;;;;8.13;7.33;;;17.10;99.90;;;;;;4976877;28;20211;-57
2021/07/03 05:40:59;;;;;;;7.45;6.70;;;17.20;99.90;;;;;;4978966;28;20470;-57
2021/07/03 05:43:26;;;;;;;8.60;7.60;;;17.40;99.90;;;;;;4984053;28;20649;-57
2021/07/03 05:45:52;;;;;;;7.18;6.57;;;17.40;99.90;;;;;;4983065;28;20184;-56
2021/07/03 05:48:18;;;;;;;9.17;8.13;;;17.40;99.90;;;;;;4979925;28;20208;-56
2021/07/03 05:50:44;;;;;;;8.30;7.50;;;17.80;99.90;;;;;;4983231;28;20442;-57
2021/07/03 05:53:09;;;;;;;8.93;8.03;;;17.90;99.90;;;;;;4984397;28;20279;-56
2021/07/03 05:55:35;;;;;;;8.90;8.00;;;18.10;99.90;;;;;;4983163;28;20287;-56
2021/07/03 05:58:00;;;;;;;7.40;6.57;;;18.20;99.90;;;;;;4985809;28;20211;-54
2021/07/03 06:00:26;;;;;;;8.23;7.43;;;18.20;99.90;;;;;;4985372;28;20397;-57
2021/07/03 06:03:01;;;;;;;7.73;7.03;;;18.30;99.90;;;;;;4980600;28;20558;-57
2021/07/03 06:05:27;;;;;;;7.30;6.60;;;18.40;99.90;;;;;;4985827;28;20302;-57
2021/07/03 06:07:52;;;;;;;8.03;6.83;;;18.40;99.90;;;;;;4991670;28;20744;-56
2021/07/03 06:10:18;;;;;;;9.70;8.80;;;18.60;99.90;;;;;;4986160;28;20230;-54
2021/07/03 06:12:44;;;;;;;7.67;6.90;;;18.80;99.90;;;;;;4977260;28;20180;-56
2021/07/03 06:15:11;;;;;;;7.97;6.60;;;19.00;99.90;;;;;;4972693;28;20650;-56
2021/07/03 06:17:37;;;;;;;9.63;7.05;;;19.20;99.90;;;;;;4983484;28;20192;-57
2021/07/03 06:20:04;;;;;;;6.70;6.10;;;19.30;99.90;;;;;;4975320;28;20227;-58
2021/07/03 06:22:30;;;;;;;7.78;7.07;;;19.40;99.90;;;;;;4983680;28;20256;-59
2021/07/03 06:24:56;;;;;;;8.37;7.57;;;19.50;99.90;;;;;;4985615;28;20664;-60
2021/07/03 06:27:21;;;;;;;7.67;6.97;;;19.60;99.90;;;;;;4980150;28;20180;-58
2021/07/03 06:29:47;;;;;;;7.20;6.60;;;19.80;99.90;;;;;;4980974;28;20270;-59
2021/07/03 06:32:13;;;;;;;8.43;7.63;;;20.00;99.90;;;;;;4977038;28;20282;-59
2021/07/03 06:34:38;;;;;;;8.30;7.50;;;20.10;99.90;;;;;;4984832;28;20187;-60
2021/07/03 06:37:05;;;;;;;7.70;7.00;;;20.20;99.90;;;;;;4976311;28;20183;-57
2021/07/03 06:39:30;;;;;;;6.80;6.20;;;20.40;99.90;;;;;;4987001;28;20207;-60
2021/07/03 06:41:56;;;;;;;7.10;6.47;;;20.60;99.00;;;;;;4986120;28;20194;-57
2021/07/03 06:44:22;;;;;;;7.50;6.53;;;20.60;98.50;;;;;;4981019;28;20645;-57
2021/07/03 06:46:47;;;;;;;7.27;6.67;;;20.60;98.40;;;;;;4987307;28;20171;-55
2021/07/03 06:49:14;;;;;;;7.27;6.57;;;20.90;98.50;;;;;;4987292;28;20314;-56
2021/07/03 06:51:40;;;;;;;6.78;6.18;;;21.10;98.00;;;;;;4997440;28;20916;-57
2021/07/03 06:54:06;;;;;;;7.83;7.13;;;21.30;96.60;;;;;;4972467;28;20188;-57
2021/07/03 06:56:31;;;;;;;7.27;6.57;;;21.50;96.00;;;;;;4982451;28;20179;-56
2021/07/03 06:58:57;;;;;;;7.87;7.07;;;21.70;95.40;;;;;;4977870;28;20578;-56
2021/07/03 07:01:23;;;;;;;7.87;6.10;;;21.90;95.30;;;;;;4980673;28;20203;-56
2021/07/03 07:03:49;;;;;;;7.05;6.35;;;22.40;94.60;;;;;;4980584;28;20434;-57
2021/07/03 07:06:14;;;;;;;7.30;6.70;;;23.20;93.20;;;;;;4981775;28;20184;-57
2021/07/03 07:08:40;;;;;;;6.27;5.77;;;24.20;91.90;;;;;;4979407;28;20463;-56
2021/07/03 07:11:06;;;;;;;7.70;6.90;;;25.60;88.30;;;;;;4975817;28;20347;-54
2021/07/03 07:13:31;;;;;;;6.30;5.77;;;27.50;81.70;;;;;;4977594;28;20196;-55
2021/07/03 07:15:57;;;;;;;6.20;5.70;;;29.10;73.70;;;;;;4985200;28;20304;-58
2021/07/03 07:18:23;;;;;;;7.20;6.50;;;30.50;65.10;;;;;;4978316;28;22026;-58
2021/07/03 07:20:49;;;;;;;6.90;6.30;;;31.60;60.30;;;;;;4983205;28;20225;-58
2021/07/03 07:23:14;;;;;;;6.97;6.37;;;32.40;58.10;;;;;;4981336;28;20530;-55
2021/07/03 07:25:41;;;;;;;6.00;5.50;;;33.30;54.60;;;;;;4982417;28;20438;-57
2021/07/03 07:28:07;;;;;;;6.53;6.00;;;32.40;54.00;;;;;;4980373;28;20297;-56
2021/07/03 07:30:32;;;;;;;7.10;6.50;;;32.30;55.50;;;;;;4980781;28;20442;-58
2021/07/03 07:32:58;;;;;;;5.50;5.10;;;32.80;53.20;;;;;;4987863;28;20197;-56
2021/07/03 07:35:24;;;;;;;6.73;6.00;;;32.70;52.90;;;;;;4983803;28;20453;-56
2021/07/03 07:37:51;;;;;;;6.60;6.00;;;34.50;51.10;;;;;;4986573;28;20913;-57
2021/07/03 07:40:18;;;;;;;6.20;5.70;;;34.10;50.40;;;;;;4982705;28;20471;-56
2021/07/03 07:42:43;;;;;;;5.93;5.43;;;33.80;49.40;;;;;;4978165;28;20446;-56
2021/07/03 07:45:10;;;;;;;6.67;6.17;;;34.10;49.70;;;;;;4982554;28;20504;-57
2021/07/03 07:47:35;;;;;;;6.67;6.13;;;34.90;49.30;;;;;;4979852;28;20239;-57
2021/07/03 07:50:02;;;;;;;6.90;6.30;;;35.70;47.40;;;;;;4978309;28;20981;-57
2021/07/03 07:52:27;;;;;;;5.97;5.47;;;36.60;45.80;;;;;;4981973;28;20192;-57
2021/07/03 07:54:53;;;;;;;5.30;4.90;;;36.30;44.00;;;;;;4982308;28;20931;-56
2021/07/03 07:57:21;;;;;;;6.00;5.50;;;35.80;43.40;;;;;;4979327;28;20203;-55
2021/07/03 07:59:48;;;;;;;6.43;5.87;;;34.00;45.80;;;;;;4978967;28;20230;-56
2021/07/03 08:02:13;;;;;;;5.80;5.40;;;33.50;47.00;;;;;;4981893;28;20509;-55
2021/07/03 08:04:39;;;;;;;6.00;5.50;;;33.70;47.10;;;;;;4998161;28;20955;-56
2021/07/03 08:07:05;;;;;;;5.87;5.37;;;32.80;48.90;;;;;;4974543;28;20192;-56
2021/07/03 08:09:30;;;;;;;5.40;5.00;;;34.60;46.70;;;;;;4979646;28;20215;-58
2021/07/03 08:11:56;;;;;;;6.23;5.73;;;35.20;44.30;;;;;;4978330;28;20202;-58
2021/07/03 08:14:25;;;;;;;5.20;4.80;;;34.80;45.30;;;;;;4979168;28;20211;-58
2021/07/03 08:16:51;;;;;;;6.30;5.80;;;35.50;44.00;;;;;;4981114;28;20603;-58
2021/07/03 08:19:17;;;;;;;6.13;5.70;;;35.00;43.40;;;;;;4980197;28;20518;-57
2021/07/03 08:21:43;;;;;;;5.70;5.30;;;32.90;46.70;;;;;;4980850;28;20242;-58
2021/07/03 08:24:09;;;;;;;5.30;4.90;;;32.90;48.20;;;;;;4978800;28;21558;-58
2021/07/03 08:26:35;;;;;;;4.87;4.57;;;34.40;44.50;;;;;;4976427;28;20450;-57
2021/07/03 08:29:01;;;;;;;5.47;5.07;;;35.50;41.20;;;;;;4979369;28;21425;-57
2021/07/03 08:31:27;;;;;;;5.20;4.80;;;35.10;40.10;;;;;;4996663;28;20196;-57
2021/07/03 08:33:53;;;;;;;5.27;4.80;;;34.30;41.90;;;;;;4979121;28;20963;-57
2021/07/03 08:36:18;;;;;;;5.53;5.03;;;35.20;42.80;;;;;;4978066;28;20191;-57
2021/07/03 08:38:44;;;;;;;5.30;4.90;;;35.10;42.00;;;;;;4978724;28;20207;-56
2021/07/03 08:41:12;;;;;;;5.80;5.37;;;34.70;43.10;;;;;;4977401;28;20235;-56
2021/07/03 08:43:45;;;;;;;5.87;5.40;;;34.90;41.90;;;;;;4977718;28;20539;-57
2021/07/03 08:46:17;;;;;;;5.57;5.17;;;35.20;42.00;;;;;;4978157;28;20821;-58
2021/07/03 08:48:43;;;;;;;6.10;5.60;;;36.30;40.90;;;;;;4979703;28;20455;-57
2021/07/03 08:51:09;;;;;;;5.67;5.20;;;37.10;39.40;;;;;;4978196;28;20454;-57
2021/07/03 08:53:35;;;;;;;6.07;5.57;;;36.30;39.70;;;;;;4981047;28;20191;-58
2021/07/03 08:56:02;;;;;;;5.93;5.53;;;36.40;38.80;;;;;;4971339;28;20261;-57
2021/07/03 08:58:27;;;;;;;5.70;5.20;;;36.10;40.20;;;;;;4975905;28;20261;-56
2021/07/03 09:00:53;;;;;;;5.23;4.83;;;35.60;39.40;;;;;;4979293;28;20474;-56
2021/07/03 09:03:21;;;;;;;5.33;4.93;;;37.10;37.20;;;;;;4980984;28;20188;-55
2021/07/03 09:05:54;;;;;;;5.47;5.07;;;37.70;36.80;;;;;;4977822;28;20450;-55
2021/07/03 09:08:21;;;;;;;5.90;5.47;;;36.90;36.80;;;;;;4993186;28;20469;-56
2021/07/03 09:10:48;;;;;;;5.10;4.80;;;37.80;36.10;;;;;;4971842;28;20459;-57
2021/07/03 09:13:14;;;;;;;5.30;4.90;;;37.50;37.00;;;;;;4976951;28;20837;-55
2021/07/03 09:15:44;;;;;;;5.63;5.23;;;38.80;35.80;;;;;;4979696;28;20455;-56
2021/07/03 09:18:12;;;;;;;5.47;5.07;;;39.20;34.50;;;;;;4978661;28;20952;-55
2021/07/03 09:20:54;;;;;;;5.83;5.43;;;39.10;32.90;;;;;;4978657;28;20471;-56
2021/07/03 09:23:22;;;;;;;5.70;5.20;;;39.30;32.60;;;;;;4985684;28;20450;-55
2021/07/03 09:25:55;;;;;;;5.27;4.87;;;36.60;36.40;;;;;;4977888;28;20490;-54
2021/07/03 09:28:30;;;;;;;5.27;4.87;;;37.60;35.00;;;;;;4981725;28;20477;-56
2021/07/03 09:30:58;;;;;;;5.53;5.13;;;38.20;34.20;;;;;;4983446;28;20507;-55
2021/07/03 09:33:29;;;;;;;5.80;5.40;;;37.80;34.20;;;;;;4983586;28;20455;-58
2021/07/03 09:36:13;;;;;;;5.97;5.43;;;38.30;33.50;;;;;;4978979;28;20616;-57
2021/07/03 09:38:41;;;;;;;5.27;4.87;;;38.20;34.40;;;;;;4982531;28;20470;-57
2021/07/03 09:41:15;;;;;;;5.37;5.07;;;38.20;33.80;;;;;;4981041;28;20557;-57
2021/07/03 09:43:50;;;;;;;6.17;5.77;;;38.30;34.00;;;;;;4980527;28;20543;-57
2021/07/03 09:46:25;;;;;;;5.07;4.77;;;37.60;34.60;;;;;;4977902;28;20451;-57
2021/07/03 09:48:53;;;;;;;5.33;4.93;;;37.70;34.00;;;;;;4993355;28;20461;-58
2021/07/03 09:51:28;;;;;;;5.00;4.60;;;37.70;33.00;;;;;;4981311;28;20520;-57
2021/07/03 09:53:54;;;;;;;5.10;4.70;;;38.00;33.00;;;;;;4982849;28;20493;-57
2021/07/03 09:56:21;;;;;;;5.23;4.83;;;38.20;34.20;;;;;;4982262;28;20455;-56
2021/07/03 09:58:46;;;;;;;5.30;4.90;;;37.80;33.90;;;;;;4973726;28;21191;-57
2021/07/03 10:01:12;;;;;;;5.33;4.93;;;38.80;32.50;;;;;;4981094;28;20469;-58
2021/07/03 10:03:41;;;;;;;5.60;4.93;;;38.40;31.80;;;;;;4984006;28;20207;-59
2021/07/03 10:06:12;;;;;;;5.57;5.17;;;37.60;32.80;;;;;;4981421;28;20564;-57
2021/07/03 10:08:42;;;;;;;5.20;4.90;;;37.60;33.30;;;;;;4983053;28;20470;-58
2021/07/03 10:11:10;;;;;;;4.83;4.43;;;38.20;32.80;;;;;;4980760;28;20449;-56
2021/07/03 10:13:39;;;;;;;4.30;4.00;;;38.50;31.60;;;;;;4983162;28;20891;-57
2021/07/03 10:16:07;;;;;;;4.77;4.43;;;38.50;32.30;;;;;;4983199;28;20497;-55
2021/07/03 10:18:34;;;;;;;5.60;5.20;;;38.30;31.90;;;;;;4982475;28;21189;-56
2021/07/03 10:21:16;;;;;;;6.20;5.63;;;37.10;33.10;;;;;;4975878;28;22689;-55
2021/07/03 10:23:43;;;;;;;5.50;5.10;;;36.20;34.30;;;;;;4982070;28;20462;-55
2021/07/03 10:26:10;;;;;;;5.47;5.10;;;36.20;35.90;;;;;;4980312;28;20447;-55
2021/07/03 10:28:39;;;;;;;5.73;5.23;;;37.10;33.70;;;;;;4981652;28;20470;-56
2021/07/03 10:31:13;;;;;;;4.77;4.40;;;36.90;34.90;;;;;;4977228;28;20448;-56
2021/07/03 10:33:47;;;;;;;5.23;4.93;;;37.80;34.00;;;;;;4976640;28;20515;-58
2021/07/03 10:36:24;;;;;;;5.13;4.73;;;38.30;33.30;;;;;;4997190;28;20442;-55
2021/07/03 10:38:50;;;;;;;5.70;5.17;;;38.60;32.80;;;;;;4977360;28;20471;-55
2021/07/03 10:41:22;;;;;;;5.93;5.47;;;39.00;32.70;;;;;;4980617;28;22194;-55
2021/07/03 10:43:51;;;;;;;6.10;5.60;;;38.70;31.70;;;;;;4993870;28;20299;-56
2021/07/03 10:46:41;;;;;;;5.00;4.70;;;38.00;32.20;;;;;;4979953;28;20987;-56
2021/07/03 10:49:09;;;;;;;4.70;4.40;;;38.20;32.40;;;;;;4982903;28;20469;-56
2021/07/03 10:51:37;;;;;;;6.10;5.50;;;38.20;32.00;;;;;;4975601;28;20447;-57
2021/07/03 10:54:24;;;;;;;5.30;4.90;;;37.50;31.80;;;;;;4982887;28;20503;-56
2021/07/03 10:57:00;;;;;;;4.80;4.50;;;37.50;32.80;;;;;;4979193;28;20523;-57
2021/07/03 10:59:27;;;;;;;4.47;4.17;;;38.40;32.50;;;;;;4987167;28;20207;-57
2021/07/03 11:01:53;;;;;;;4.93;4.30;;;39.10;30.90;;;;;;4981187;28;20438;-58
2021/07/03 11:04:22;;;;;;;5.30;4.90;;;38.30;31.30;;;;;;4980160;28;20466;-58
2021/07/03 11:06:53;;;;;;;5.47;5.07;;;37.90;30.50;;;;;;4984086;28;20441;-59
2021/07/03 11:09:19;;;;;;;5.37;4.97;;;37.20;32.20;;;;;;4982247;28;20470;-58
2021/07/03 11:11:44;;;;;;;5.03;4.63;;;37.40;33.00;;;;;;4972664;28;20440;-58
2021/07/03 11:14:19;;;;;;;5.40;4.53;;;37.90;32.00;;;;;;4994901;28;20278;-56
2021/07/03 11:16:53;;;;;;;6.63;5.13;;;37.60;32.60;;;;;;4980615;28;20215;-57
2021/07/03 11:19:28;;;;;;;4.70;4.40;;;37.50;32.60;;;;;;4974689;28;20536;-57
2021/07/03 11:22:08;;;;;;;5.00;4.60;;;37.30;32.70;;;;;;4982359;28;20435;-58
2021/07/03 11:24:48;;;;;;;4.47;4.17;;;36.50;32.70;;;;;;4982674;28;20471;-56
2021/07/03 11:27:35;;;;;;;4.97;4.60;;;36.70;32.90;;;;;;4979962;28;20527;-58
2021/07/03 11:30:16;;;;;;;5.27;4.87;;;36.30;33.40;;;;;;4982000;28;20587;-56
2021/07/03 11:32:57;;;;;;;5.20;4.80;;;35.70;35.00;;;;;;4979541;28;20446;-58
2021/07/03 11:35:24;;;;;;;4.97;4.60;;;36.00;34.40;;;;;;4986293;28;20480;-57
2021/07/03 11:37:50;;;;;;;4.73;4.43;;;35.30;35.10;;;;;;4980898;28;20439;-55
2021/07/03 11:40:17;;;;;;;4.87;4.37;;;34.50;36.40;;;;;;4985740;28;20463;-56
2021/07/03 11:42:46;;;;;;;4.93;4.63;;;34.70;35.80;;;;;;4978046;28;20431;-56
2021/07/03 11:45:17;;;;;;;5.13;4.73;;;33.60;36.60;;;;;;4975644;28;20566;-56
2021/07/03 11:47:52;;;;;;;5.37;4.87;;;33.10;37.80;;;;;;4978849;28;20431;-56
2021/07/03 11:50:21;;;;;;;5.47;5.07;;;32.70;39.20;;;;;;4977155;28;20446;-55
2021/07/03 11:52:53;;;;;;;6.37;5.90;;;32.50;39.50;;;;;;4983960;28;20450;-56
2021/07/03 11:55:28;;;;;;;5.23;4.83;;;32.40;39.50;;;;;;4982511;28;20439;-57
2021/07/03 11:57:55;;;;;;;5.17;4.77;;;31.50;40.20;;;;;;4982786;28;20533;-58
2021/07/03 12:00:23;;;;;;;4.70;4.30;;;31.40;40.70;;;;;;4979407;28;20460;-56
2021/07/03 12:02:49;;;;;;;4.80;4.50;;;30.90;41.40;;;;;;4984687;28;20530;-58
2021/07/03 12:05:20;;;;;;;5.00;4.60;;;30.50;42.00;;;;;;4985240;28;20478;-56
2021/07/03 12:07:59;;;;;;;4.70;4.40;;;30.20;42.70;;;;;;4974974;28;20512;-57
2021/07/03 12:10:50;;;;;;;5.37;4.97;;;29.60;44.00;;;;;;4988791;28;20962;-57
2021/07/03 12:13:53;;;;;;;5.60;5.10;;;29.30;44.50;;;;;;4986534;28;20499;-56
2021/07/03 12:16:20;;;;;;;5.30;4.90;;;28.80;45.60;;;;;;4966636;28;21309;-56
2021/07/03 12:18:52;;;;;;;5.20;4.80;;;28.80;46.30;;;;;;4983797;28;20459;-57
2021/07/03 12:21:30;;;;;;;5.00;4.60;;;28.70;46.30;;;;;;4984756;28;20919;-56
2021/07/03 12:23:59;;;;;;;5.67;5.17;;;28.80;46.20;;;;;;4983888;28;20485;-56
2021/07/03 12:26:49;;;;;;;4.70;4.40;;;28.90;46.00;;;;;;4974391;28;20476;-58
2021/07/03 12:29:24;;;;;;;4.83;4.43;;;29.10;46.20;;;;;;4977619;28;20800;-56
2021/07/03 12:31:50;;;;;;;5.20;4.80;;;29.00;45.40;;;;;;4976380;28;20448;-58
2021/07/03 12:34:27;;;;;;;5.43;4.90;;;29.00;46.20;;;;;;4985439;28;20972;-57
2021/07/03 12:37:03;;;;;;;5.17;4.77;;;28.90;46.10;;;;;;4987708;28;20447;-57
2021/07/03 12:39:29;;;;;;;4.90;4.50;;;29.10;45.90;;;;;;4984166;28;20450;-58
2021/07/03 12:41:57;;;;;;;4.30;4.00;;;29.20;44.70;;;;;;4983799;28;20517;-58
2021/07/03 12:44:48;;;;;;;4.90;4.60;;;29.40;44.60;;;;;;4984905;28;20276;-57
2021/07/03 12:47:19;;;;;;;4.93;4.53;;;29.30;44.40;;;;;;4979538;28;20992;-56
2021/07/03 12:49:49;;;;;;;4.40;4.10;;;29.40;45.00;;;;;;4973795;28;20483;-57
2021/07/03 12:52:15;;;;;;;4.80;4.40;;;29.10;44.60;;;;;;4985261;28;20595;-56